createdAt,value
2023-02-03T00:02:24.911Z,2.36
2023-02-03T00:04:52.910Z,2.40
2023-02-03T00:07:20.506Z,2.36
2023-02-03T00:09:48.309Z,2.37
2023-02-03T00:12:16.337Z,2.32
2023-02-03T00:14:43.899Z,2.18
2023-02-03T00:17:11.543Z,2.30
2023-02-03T00:19:39.490Z,2.44
2023-02-03T00:22:07.106Z,2.17
2023-02-03T00:24:34.791Z,2.23
2023-02-03T00:27:02.705Z,2.10
2023-02-03T00:29:30.509Z,2.20
2023-02-03T00:31:58.362Z,2.27
2023-02-03T00:34:30.393Z,2.29
2023-02-03T00:36:57.844Z,2.22
2023-02-03T00:39:25.922Z,2.21
2023-02-03T00:41:54.001Z,2.28
2023-02-03T00:44:21.729Z,2.05
2023-02-03T00:46:51.846Z,2.13
2023-02-03T00:49:19.879Z,2.31
2023-02-03T00:51:47.505Z,2.14
2023-02-03T00:54:15.368Z,2.27
2023-02-03T00:56:43.594Z,2.02
2023-02-03T00:59:12.882Z,2.25
2023-02-03T01:01:40.612Z,2.10
2023-02-03T01:04:08.728Z,2.20
2023-02-03T01:06:36.380Z,2.20
2023-02-03T01:09:04.181Z,2.22
2023-02-03T01:11:33.325Z,2.20
2023-02-03T01:14:01.017Z,2.06
2023-02-03T01:16:30.381Z,2.05
2023-02-03T01:18:58.456Z,1.90
2023-02-03T01:21:26.779Z,2.06
2023-02-03T01:23:54.425Z,2.27
2023-02-03T01:26:23.424Z,2.05
2023-02-03T01:28:53.898Z,2.24
2023-02-03T01:31:34.011Z,2.06
2023-02-03T01:34:01.714Z,1.94
2023-02-03T01:36:31.377Z,2.10
2023-02-03T01:38:59.780Z,2.04
2023-02-03T01:41:30.135Z,1.97
2023-02-03T01:44:00.188Z,2.07
2023-02-03T01:46:37.444Z,2.06
2023-02-03T01:49:29.830Z,2.07
2023-02-03T01:51:57.549Z,2.04
2023-02-03T01:54:29.090Z,1.99
2023-02-03T01:57:00.906Z,1.94
2023-02-03T01:59:30.326Z,2.11
2023-02-03T02:01:58.955Z,2.00
2023-02-03T02:04:33.324Z,1.89
2023-02-03T02:07:01.543Z,1.60
2023-02-03T02:09:29.625Z,1.68
2023-02-03T02:11:57.302Z,1.72
2023-02-03T02:14:25.275Z,1.66
2023-02-03T02:17:00.835Z,1.83
2023-02-03T02:19:37.970Z,1.87
2023-02-03T02:22:19.533Z,1.79
2023-02-03T02:25:02.807Z,1.70
2023-02-03T02:27:39.956Z,1.76
2023-02-03T02:30:16.458Z,1.76
2023-02-03T02:32:47.381Z,1.76
2023-02-03T02:35:36.229Z,1.93
2023-02-03T02:38:28.575Z,2.05
2023-02-03T02:41:11.019Z,1.80
2023-02-03T02:43:49.631Z,2.07
2023-02-03T02:46:41.863Z,1.75
2023-02-03T02:49:16.799Z,2.05
2023-02-03T02:51:45.021Z,1.84
2023-02-03T02:54:16.759Z,1.83
2023-02-03T02:56:45.744Z,1.88
2023-02-03T02:59:14.844Z,1.87
2023-02-03T03:01:42.558Z,2.05
2023-02-03T03:04:12.052Z,1.91
2023-02-03T03:06:46.226Z,2.08
2023-02-03T03:09:20.960Z,2.00
2023-02-03T03:12:02.217Z,1.74
2023-02-03T03:14:31.821Z,1.66
2023-02-03T03:17:03.354Z,1.56
2023-02-03T03:19:35.285Z,1.80
2023-02-03T03:22:06.350Z,1.78
2023-02-03T03:24:40.097Z,1.82
2023-02-03T03:27:15.953Z,1.78
2023-02-03T03:29:48.666Z,1.77
2023-02-03T03:32:16.675Z,1.73
2023-02-03T03:34:44.318Z,1.74
2023-02-03T03:37:16.400Z,1.66
2023-02-03T03:39:47.775Z,1.58
2023-02-03T03:42:37.309Z,1.74
2023-02-03T03:45:20.301Z,1.55
2023-02-03T03:47:51.245Z,1.53
2023-02-03T03:50:23.668Z,1.60
2023-02-03T03:52:52.120Z,1.64
2023-02-03T03:55:20.801Z,1.49
2023-02-03T03:57:57.511Z,1.57
2023-02-03T04:00:28.490Z,1.51
2023-02-03T04:02:58.467Z,1.45
2023-02-03T04:05:26.968Z,1.28
2023-02-03T04:07:54.753Z,1.43
2023-02-03T04:10:31.541Z,1.40
2023-02-03T04:13:01.651Z,1.41
2023-02-03T04:15:30.747Z,1.44
2023-02-03T04:17:58.972Z,1.35
2023-02-03T04:20:28.351Z,1.25
2023-02-03T04:22:56.848Z,1.37
2023-02-03T04:25:25.629Z,1.35
2023-02-03T04:27:53.495Z,1.32
2023-02-03T04:30:21.558Z,1.31
2023-02-03T04:32:49.103Z,1.20
2023-02-03T04:35:16.891Z,1.33
2023-02-03T04:37:44.960Z,1.30
2023-02-03T04:40:13.178Z,1.42
2023-02-03T04:42:41.533Z,1.20
2023-02-03T04:45:11.052Z,1.17
2023-02-03T04:47:39.412Z,1.13
2023-02-03T04:50:07.603Z,1.08
2023-02-03T04:52:35.592Z,1.04
2023-02-03T04:55:03.271Z,1.03
2023-02-03T04:57:31.225Z,1.22
2023-02-03T04:59:59.170Z,1.20
2023-02-03T05:02:26.784Z,1.23
2023-02-03T05:04:54.529Z,1.24
2023-02-03T05:07:22.589Z,1.22
2023-02-03T05:09:50.372Z,1.23
2023-02-03T05:12:17.967Z,1.12
2023-02-03T05:14:45.877Z,1.21
2023-02-03T05:17:13.629Z,1.21
2023-02-03T05:19:41.382Z,1.26
2023-02-03T05:22:09.499Z,1.30
2023-02-03T05:24:37.050Z,1.44
2023-02-03T05:27:04.798Z,1.23
2023-02-03T05:29:33.133Z,1.31
2023-02-03T05:32:01.078Z,1.29
2023-02-03T05:34:28.771Z,1.16
2023-02-03T05:36:56.713Z,1.28
2023-02-03T05:39:24.755Z,1.35
2023-02-03T05:41:52.725Z,1.33
2023-02-03T05:44:21.569Z,1.17
2023-02-03T05:46:49.954Z,1.26
2023-02-03T05:49:18.940Z,1.39
2023-02-03T05:51:47.246Z,1.37
2023-02-03T05:54:15.097Z,1.40
2023-02-03T05:56:42.974Z,1.34
2023-02-03T05:59:10.947Z,1.39
2023-02-03T06:01:38.826Z,1.62
2023-02-03T06:04:07.055Z,1.56
2023-02-03T06:06:35.017Z,1.53
2023-02-03T06:09:04.888Z,1.63
2023-02-03T06:11:33.511Z,1.70
2023-02-03T06:14:01.402Z,1.71
2023-02-03T06:16:29.251Z,1.77
2023-02-03T06:18:57.220Z,1.71
2023-02-03T06:21:25.518Z,1.67
2023-02-03T06:23:53.335Z,1.72
2023-02-03T06:26:21.195Z,1.69
2023-02-03T06:28:49.212Z,1.82
2023-02-03T06:31:17.089Z,1.72
2023-02-03T06:33:45.121Z,1.97
2023-02-03T06:36:12.822Z,1.86
2023-02-03T06:38:40.465Z,1.71
2023-02-03T06:41:08.426Z,1.74
2023-02-03T06:43:36.221Z,1.71
2023-02-03T06:46:03.900Z,1.81
2023-02-03T06:48:32.313Z,1.73
2023-02-03T06:51:00.079Z,1.50
2023-02-03T06:53:27.731Z,1.71
2023-02-03T06:55:55.710Z,1.82
2023-02-03T06:58:23.499Z,1.93
2023-02-03T07:00:51.248Z,1.88
2023-02-03T07:03:19.353Z,1.95
2023-02-03T07:05:47.193Z,1.99
2023-02-03T07:08:15.160Z,1.91
2023-02-03T07:10:43.220Z,1.75
2023-02-03T07:13:10.885Z,1.69
2023-02-03T07:15:38.727Z,1.80
2023-02-03T07:18:06.847Z,1.67
2023-02-03T07:20:34.482Z,1.52
2023-02-03T07:23:02.256Z,1.44
2023-02-03T07:25:30.991Z,1.53
2023-02-03T07:27:58.782Z,1.19
2023-02-03T07:30:26.798Z,1.61
2023-02-03T07:32:54.972Z,1.80
2023-02-03T07:35:22.753Z,1.94
2023-02-03T07:37:50.377Z,2.02
2023-02-03T07:40:18.734Z,1.96
2023-02-03T07:42:48.346Z,1.80
2023-02-03T07:45:18.399Z,2.04
2023-02-03T07:47:46.422Z,2.12
2023-02-03T07:50:14.053Z,2.33
2023-02-03T07:52:41.894Z,2.13
2023-02-03T07:55:10.326Z,1.98
2023-02-03T07:57:38.112Z,2.07
2023-02-03T08:00:06.448Z,2.09
2023-02-03T08:02:40.892Z,2.18
2023-02-03T08:05:09.651Z,2.38
2023-02-03T08:07:37.737Z,2.38
2023-02-03T08:10:06.734Z,2.30
2023-02-03T08:12:35.035Z,2.19
2023-02-03T08:15:02.812Z,1.96
2023-02-03T08:17:30.728Z,2.10
2023-02-03T08:19:58.753Z,2.09
2023-02-03T08:22:29.601Z,2.18
2023-02-03T08:24:57.220Z,2.35
2023-02-03T08:27:25.395Z,2.44
2023-02-03T08:29:53.171Z,2.61
2023-02-03T08:32:22.444Z,2.53
2023-02-03T08:34:51.584Z,2.52
2023-02-03T08:37:22.209Z,2.35
2023-02-03T08:39:50.609Z,2.19
2023-02-03T08:42:18.403Z,2.33
2023-02-03T08:44:46.070Z,1.92
2023-02-03T08:47:14.010Z,1.96
2023-02-03T08:49:42.363Z,1.80
2023-02-03T08:52:12.396Z,1.84
2023-02-03T08:54:40.410Z,2.15
2023-02-03T08:57:08.301Z,2.00
2023-02-03T08:59:38.704Z,2.02
2023-02-03T09:02:08.439Z,2.13
2023-02-03T09:04:36.417Z,2.23
2023-02-03T09:07:04.016Z,2.00
2023-02-03T09:09:31.974Z,1.80
2023-02-03T09:11:59.737Z,2.02
2023-02-03T09:14:28.914Z,1.94
2023-02-03T09:16:57.068Z,2.18
2023-02-03T09:19:25.236Z,2.30
2023-02-03T09:21:52.961Z,2.13
2023-02-03T09:24:21.257Z,2.29
2023-02-03T09:26:49.136Z,2.27
2023-02-03T09:29:16.879Z,2.41
2023-02-03T09:31:44.839Z,2.10
2023-02-03T09:34:12.838Z,1.83
2023-02-03T09:36:41.989Z,2.02
2023-02-03T09:39:11.100Z,2.00
2023-02-03T09:42:09.843Z,1.64
2023-02-03T09:44:59.302Z,1.06
2023-02-03T09:47:29.687Z,0.93
2023-02-03T09:50:00.393Z,0.91
2023-02-03T09:52:31.150Z,1.10
2023-02-03T09:55:38.321Z,1.27
2023-02-03T09:58:10.613Z,1.14
2023-02-03T10:00:49.512Z,1.31
2023-02-03T10:03:36.392Z,0.86
2023-02-03T10:06:31.115Z,0.87
2023-02-03T10:09:08.108Z,0.97
2023-02-03T10:11:41.556Z,1.13
2023-02-03T10:14:16.014Z,0.84
2023-02-03T10:16:52.323Z,0.85
2023-02-03T10:19:23.351Z,1.13
2023-02-03T10:21:58.088Z,1.32
2023-02-03T10:24:40.713Z,1.05
2023-02-03T10:27:20.521Z,1.27
2023-02-03T10:30:24.832Z,1.52
2023-02-03T10:33:16.964Z,1.10
2023-02-03T10:35:53.777Z,1.02
2023-02-03T10:38:43.864Z,1.66
2023-02-03T10:41:11.954Z,1.15
2023-02-03T10:43:39.634Z,1.39
2023-02-03T10:46:07.421Z,1.38
2023-02-03T10:48:35.439Z,1.11
2023-02-03T10:51:03.232Z,1.19
2023-02-03T10:53:35.649Z,0.96
2023-02-03T10:56:13.567Z,1.09
2023-02-03T10:58:54.015Z,0.71
2023-02-03T11:01:47.349Z,0.96
2023-02-03T11:04:25.972Z,0.92
2023-02-03T11:06:59.027Z,0.73
2023-02-03T11:09:38.923Z,0.85
2023-02-03T11:12:08.384Z,0.74
2023-02-03T11:14:37.389Z,0.93
2023-02-03T11:17:09.860Z,1.17
2023-02-03T11:19:39.108Z,1.11
2023-02-03T11:22:06.843Z,0.86
2023-02-03T11:24:38.901Z,1.13
2023-02-03T11:27:10.367Z,1.40
2023-02-03T11:29:40.689Z,1.47
2023-02-03T11:32:37.170Z,1.05
2023-02-03T11:35:16.635Z,0.91
2023-02-03T11:37:46.621Z,0.63
2023-02-03T11:40:17.264Z,0.85
2023-02-03T11:42:59.247Z,0.68
2023-02-03T11:45:34.774Z,0.80
2023-02-03T11:48:02.735Z,0.68
2023-02-03T11:50:38.522Z,0.61
2023-02-03T11:53:47.852Z,0.81
2023-02-03T11:56:45.329Z,0.66
2023-02-03T11:59:38.315Z,0.80
2023-02-03T12:02:09.087Z,0.86
2023-02-03T12:05:22.402Z,1.04
2023-02-03T12:08:11.788Z,0.76
2023-02-03T12:11:01.430Z,0.84
2023-02-03T12:13:31.868Z,0.82
2023-02-03T12:16:37.803Z,0.88
2023-02-03T12:19:18.679Z,0.77
2023-02-03T12:21:50.497Z,0.73
2023-02-03T12:24:36.215Z,0.57
2023-02-03T12:27:34.770Z,0.69
2023-02-03T12:30:17.474Z,0.70
2023-02-03T12:32:55.773Z,0.67
2023-02-03T12:35:31.086Z,0.63
2023-02-03T12:38:12.590Z,1.03
2023-02-03T12:40:44.411Z,0.83
2023-02-03T12:43:24.516Z,1.05
2023-02-03T12:45:55.850Z,1.10
2023-02-03T12:48:29.627Z,0.59
2023-02-03T12:51:01.286Z,0.97
2023-02-03T12:53:33.601Z,0.75
2023-02-03T12:56:18.242Z,0.74
2023-02-03T12:58:54.408Z,0.77
2023-02-03T13:01:35.392Z,0.86
2023-02-03T13:04:44.266Z,0.59
2023-02-03T13:07:37.470Z,0.79
2023-02-03T13:10:23.859Z,0.78
2023-02-03T13:12:58.390Z,0.83
2023-02-03T13:15:48.030Z,0.76
2023-02-03T13:18:32.576Z,0.74
2023-02-03T13:21:01.049Z,0.56
2023-02-03T13:23:28.911Z,0.70
2023-02-03T13:26:18.323Z,0.93
2023-02-03T13:29:04.386Z,0.74
2023-02-03T13:31:44.265Z,0.53
2023-02-03T13:34:19.248Z,0.60
2023-02-03T13:37:07.116Z,0.57
2023-02-03T13:40:04.974Z,0.61
2023-02-03T13:42:38.177Z,0.64
2023-02-03T13:45:14.874Z,0.94
2023-02-03T13:47:47.443Z,1.12
2023-02-03T13:50:35.871Z,0.86
2023-02-03T13:53:13.029Z,0.85
2023-02-03T13:55:43.153Z,0.54
2023-02-03T13:58:22.745Z,0.99
2023-02-03T14:00:50.717Z,1.03
2023-02-03T14:03:24.681Z,1.20
2023-02-03T14:05:57.040Z,1.04
2023-02-03T14:08:25.220Z,0.81
2023-02-03T14:11:30.565Z,1.02
2023-02-03T14:14:07.485Z,1.11
2023-02-03T14:16:36.055Z,1.34
2023-02-03T14:19:05.643Z,1.28
2023-02-03T14:21:48.804Z,1.05
2023-02-03T14:24:17.572Z,1.14
2023-02-03T14:26:55.914Z,1.43
2023-02-03T14:29:29.596Z,1.30
2023-02-03T14:32:04.894Z,1.02
2023-02-03T14:34:44.601Z,0.92
2023-02-03T14:37:21.879Z,1.15
2023-02-03T14:39:55.962Z,1.51
2023-02-03T14:42:36.248Z,1.36
2023-02-03T14:45:31.897Z,1.69
2023-02-03T14:48:14.493Z,1.73
2023-02-03T14:50:55.368Z,1.46
2023-02-03T14:53:23.008Z,1.57
2023-02-03T14:56:00.048Z,1.36
2023-02-03T14:58:33.319Z,1.60
2023-02-03T15:01:05.824Z,1.53
2023-02-03T15:03:33.736Z,1.73
2023-02-03T15:06:06.331Z,1.86
2023-02-03T15:08:48.268Z,1.79
2023-02-03T15:11:28.030Z,1.66
2023-02-03T15:14:19.425Z,1.51
2023-02-03T15:16:53.538Z,1.62
2023-02-03T15:19:24.797Z,1.48
2023-02-03T15:21:53.673Z,1.58
2023-02-03T15:24:22.229Z,1.56
2023-02-03T15:26:54.848Z,1.58
2023-02-03T15:29:33.207Z,1.75
2023-02-03T15:32:09.977Z,2.01
2023-02-03T15:34:45.829Z,1.93
2023-02-03T15:37:18.555Z,2.01
2023-02-03T15:39:58.218Z,2.21
2023-02-03T15:42:57.916Z,2.16
2023-02-03T15:45:28.868Z,2.33
2023-02-03T15:48:03.529Z,2.40
2023-02-03T15:50:50.986Z,2.70
2023-02-03T15:53:25.009Z,2.70
2023-02-03T15:55:57.241Z,2.75
2023-02-03T15:58:28.328Z,2.79
2023-02-03T16:01:03.333Z,2.57
2023-02-03T16:03:40.859Z,2.57
2023-02-03T16:06:30.749Z,2.55
2023-02-03T16:08:58.841Z,2.59
2023-02-03T16:11:38.360Z,2.70
2023-02-03T16:14:09.529Z,2.65
2023-02-03T16:16:47.208Z,2.68
2023-02-03T16:19:23.893Z,2.67
2023-02-03T16:21:56.348Z,2.77
2023-02-03T16:24:33.363Z,2.62
2023-02-03T16:27:31.553Z,2.75
2023-02-03T16:30:06.228Z,2.96
2023-02-03T16:32:34.131Z,2.55
2023-02-03T16:35:02.260Z,2.68
2023-02-03T16:37:37.246Z,2.55
2023-02-03T16:40:05.525Z,2.69
2023-02-03T16:42:40.344Z,2.64
2023-02-03T16:45:17.656Z,2.75
2023-02-03T16:47:46.534Z,2.95
2023-02-03T16:50:29.373Z,2.99
2023-02-03T16:53:05.523Z,2.92
2023-02-03T16:55:33.429Z,3.00
2023-02-03T16:58:01.081Z,3.07
2023-02-03T17:00:28.741Z,2.96
2023-02-03T17:02:58.627Z,2.76
2023-02-03T17:05:27.376Z,2.82
2023-02-03T17:07:56.554Z,2.74
2023-02-03T17:10:24.784Z,2.59
2023-02-03T17:12:52.574Z,2.69
2023-02-03T17:15:20.443Z,2.68
2023-02-03T17:17:48.629Z,2.85
2023-02-03T17:20:16.751Z,2.72
2023-02-03T17:22:44.473Z,2.88
2023-02-03T17:25:12.552Z,2.74
2023-02-03T17:27:40.674Z,2.57
2023-02-03T17:30:10.361Z,2.68
2023-02-03T17:32:38.600Z,2.91
2023-02-03T17:35:06.755Z,2.73
2023-02-03T17:37:35.367Z,3.03
2023-02-03T17:54:02.021Z,3.20
2023-02-03T17:56:30.360Z,3.24
2023-02-03T17:59:00.112Z,3.17
2023-02-03T18:01:28.787Z,3.13
2023-02-03T18:04:04.070Z,3.43
2023-02-03T18:06:32.718Z,3.32
2023-02-03T18:09:07.632Z,3.19
2023-02-03T18:11:36.391Z,3.36
2023-02-03T18:14:05.563Z,3.16
2023-02-03T18:16:36.964Z,3.10
2023-02-03T18:19:08.078Z,3.31
2023-02-03T18:21:38.482Z,3.43
2023-02-03T18:24:06.851Z,3.45
2023-02-03T18:26:35.375Z,3.26
2023-02-03T18:29:05.182Z,3.45
2023-02-03T18:31:33.360Z,3.41
2023-02-03T18:34:03.000Z,3.47
2023-02-03T18:36:32.948Z,3.48
2023-02-03T18:39:01.245Z,3.53
2023-02-03T18:41:29.234Z,3.48
2023-02-03T18:43:57.171Z,3.56
2023-02-03T18:46:28.165Z,3.60
2023-02-03T18:48:56.612Z,3.54
2023-02-03T18:51:25.714Z,3.68
2023-02-03T18:53:58.088Z,3.65
2023-02-03T18:56:28.351Z,3.82
2023-02-03T18:58:56.664Z,3.55
2023-02-03T19:01:27.393Z,3.59
2023-02-03T19:03:56.980Z,3.69
2023-02-03T19:06:26.332Z,3.68
2023-02-03T19:08:54.260Z,3.70
2023-02-03T19:11:22.855Z,3.55
2023-02-03T19:13:51.251Z,3.59
2023-02-03T19:16:19.862Z,3.54
2023-02-03T19:18:47.882Z,3.68
2023-02-03T19:21:15.939Z,4.00
2023-02-03T19:23:44.233Z,3.97
2023-02-03T19:26:12.103Z,4.06
2023-02-03T19:28:40.974Z,4.14
2023-02-03T19:31:12.153Z,4.13
2023-02-03T19:33:41.021Z,4.23
2023-02-03T19:36:10.467Z,4.23
2023-02-03T19:38:39.727Z,4.57
2023-02-03T19:41:08.016Z,4.27
2023-02-03T19:43:36.082Z,4.35
2023-02-03T19:46:04.513Z,4.46
2023-02-03T19:48:32.843Z,4.53
2023-02-03T19:51:00.978Z,4.51
2023-02-03T19:53:29.078Z,4.40
2023-02-03T19:55:57.301Z,4.41
2023-02-03T19:58:25.316Z,4.53
2023-02-03T20:00:54.105Z,4.55
2023-02-03T20:03:23.151Z,4.47
2023-02-03T20:05:51.212Z,4.51
2023-02-03T20:08:19.397Z,4.50
2023-02-03T20:10:47.826Z,4.37
2023-02-03T20:13:18.360Z,4.29
2023-02-03T20:15:46.433Z,4.21
2023-02-03T20:18:15.998Z,4.16
2023-02-03T20:20:43.644Z,4.31
2023-02-03T20:23:11.278Z,4.20
2023-02-03T20:25:39.479Z,4.04
2023-02-03T20:28:07.381Z,4.35
2023-02-03T20:30:36.217Z,4.01
2023-02-03T20:33:04.376Z,4.09
2023-02-03T20:35:32.649Z,3.91
2023-02-03T20:38:01.721Z,4.17
2023-02-03T20:40:29.869Z,4.03
2023-02-03T20:42:58.070Z,4.02
2023-02-03T20:45:26.361Z,4.16
2023-02-03T20:47:54.530Z,4.00
2023-02-03T20:50:31.562Z,4.13
2023-02-03T20:53:13.866Z,4.18
2023-02-03T20:55:42.040Z,4.16
2023-02-03T20:58:17.080Z,4.32
2023-02-03T21:00:45.531Z,4.29
2023-02-03T21:03:14.902Z,4.32
2023-02-03T21:05:43.887Z,4.25
2023-02-03T21:08:14.741Z,4.47
2023-02-03T21:10:43.493Z,4.28
2023-02-03T21:13:20.451Z,4.32
2023-02-03T21:16:19.177Z,4.38
2023-02-03T21:18:54.585Z,4.05
2023-02-03T21:21:34.072Z,4.13
2023-02-03T21:24:22.405Z,4.10
2023-02-03T21:26:50.381Z,4.12
2023-02-03T21:29:26.602Z,4.31
2023-02-03T21:31:55.213Z,4.09
2023-02-03T21:34:34.309Z,4.21
2023-02-03T21:37:22.609Z,4.23
2023-02-03T21:39:50.722Z,4.21
2023-02-03T21:42:34.244Z,4.38
2023-02-03T21:45:02.223Z,4.16
2023-02-03T21:47:31.707Z,4.19
2023-02-03T21:50:00.786Z,4.11
2023-02-03T21:52:28.888Z,4.34
2023-02-03T21:54:57.164Z,4.37
2023-02-03T21:57:25.082Z,4.29
2023-02-03T21:59:52.765Z,4.28
2023-02-03T22:02:52.059Z,4.39
2023-02-03T22:05:20.115Z,4.32
2023-02-03T22:07:48.126Z,4.34
2023-02-03T22:10:15.888Z,4.25
2023-02-03T22:12:44.206Z,4.24
2023-02-03T22:15:12.352Z,4.40
2023-02-03T22:17:39.997Z,4.35
2023-02-03T22:20:08.376Z,4.30
2023-02-03T22:22:35.905Z,4.46
2023-02-03T22:25:03.639Z,4.28
2023-02-03T22:27:31.814Z,4.37
2023-02-03T22:29:59.499Z,4.27
2023-02-03T22:32:27.376Z,4.23
2023-02-03T22:34:55.333Z,4.18
2023-02-03T22:37:23.025Z,4.31
2023-02-03T22:39:50.650Z,4.31
2023-02-03T22:42:18.649Z,4.29
2023-02-03T22:44:46.381Z,4.32
2023-02-03T22:47:14.004Z,4.35
2023-02-03T22:49:41.989Z,4.34
2023-02-03T22:52:09.846Z,4.17
2023-02-03T22:54:37.525Z,4.02
2023-02-03T22:57:05.501Z,4.16
2023-02-03T22:59:33.270Z,4.18
2023-02-03T23:02:01.333Z,4.09
2023-02-03T23:04:29.263Z,4.11
2023-02-03T23:06:56.962Z,4.03
2023-02-03T23:09:24.792Z,4.11
2023-02-03T23:11:52.799Z,4.21
2023-02-03T23:14:20.785Z,4.31
2023-02-03T23:16:48.426Z,4.01
2023-02-03T23:19:16.784Z,4.18
2023-02-03T23:21:44.828Z,4.20
2023-02-03T23:24:12.474Z,4.23
2023-02-03T23:26:40.357Z,4.27
2023-02-03T23:29:08.113Z,4.34
2023-02-03T23:31:35.959Z,4.43
2023-02-03T23:34:03.871Z,4.37
2023-02-03T23:36:32.358Z,4.45
2023-02-03T23:39:00.096Z,4.39
2023-02-03T23:41:27.975Z,4.60
2023-02-03T23:43:55.646Z,4.33
2023-02-03T23:46:23.347Z,4.18
2023-02-03T23:48:51.435Z,4.25
2023-02-03T23:51:19.330Z,4.23
2023-02-03T23:53:46.916Z,4.25
2023-02-03T23:56:14.793Z,4.23
2023-02-03T23:58:42.481Z,4.14
